createdAt,value
2019-01-29T00:09:03.111Z,52.17
2019-01-29T00:19:04.357Z,49.43
2019-01-29T00:29:05.618Z,46.53
2019-01-29T00:39:07.632Z,55.73
2019-01-29T00:49:08.901Z,56.20
2019-01-29T00:59:10.241Z,49.83
2019-01-29T01:09:11.510Z,48.97
2019-01-29T01:19:12.786Z,45.93
2019-01-29T01:29:14.055Z,41.93
2019-01-29T01:39:15.325Z,41.50
2019-01-29T01:49:16.589Z,41.83
2019-01-29T01:59:17.921Z,39.90
2019-01-29T02:09:19.213Z,42.50
2019-01-29T02:19:20.485Z,33.83
2019-01-29T02:29:22.503Z,35.33
2019-01-29T02:39:23.777Z,35.33
2019-01-29T02:49:25.085Z,30.57
2019-01-29T02:59:27.117Z,30.43
2019-01-29T03:09:28.395Z,36.10
2019-01-29T03:19:29.661Z,28.40
2019-01-29T03:29:30.929Z,26.60
2019-01-29T03:39:32.289Z,31.10
2019-01-29T03:49:33.579Z,27.20
2019-01-29T03:59:34.837Z,28.83
2019-01-29T04:09:36.096Z,27.53
2019-01-29T04:19:37.380Z,28.73
2019-01-29T04:29:39.481Z,31.00
2019-01-29T04:39:41.523Z,31.23
2019-01-29T04:49:42.805Z,30.23
2019-01-29T04:59:44.841Z,31.90
2019-01-29T05:09:46.254Z,31.60
2019-01-29T05:19:47.531Z,23.63
2019-01-29T05:29:48.823Z,20.00
2019-01-29T05:39:50.073Z,15.30
2019-01-29T05:49:52.737Z,20.83
2019-01-29T05:59:54.061Z,20.37
2019-01-29T06:09:55.302Z,22.00
2019-01-29T06:19:57.833Z,22.20
2019-01-29T09:14:30.572Z,13.27
2019-01-29T09:24:31.842Z,7.57
2019-01-29T09:34:33.123Z,1.23
2019-01-29T09:44:34.398Z,0.90
2019-01-29T09:54:36.440Z,1.20
2019-01-29T12:31:41.597Z,1.87
2019-01-29T12:41:42.868Z,1.00
2019-01-29T12:51:44.124Z,1.10
2019-01-29T13:01:45.413Z,1.47
2019-01-29T13:11:46.740Z,0.90
2019-01-29T13:21:48.017Z,2.07
2019-01-29T13:31:49.256Z,1.10
2019-01-29T13:41:51.288Z,1.30
2019-01-29T13:51:52.542Z,3.03
2019-01-29T14:01:57.934Z,2.47
2019-01-29T14:11:59.199Z,1.20
2019-01-29T14:22:00.469Z,1.23
2019-01-29T14:32:01.734Z,1.10
2019-01-29T14:42:03.018Z,2.23
2019-01-29T14:52:04.347Z,1.30
2019-01-29T15:02:05.602Z,3.37
2019-01-29T15:12:06.875Z,1.57
2019-01-29T15:22:08.173Z,8.07
2019-01-29T15:32:09.420Z,8.33
2019-01-29T15:42:10.681Z,11.47
2019-01-29T15:52:11.929Z,9.87
2019-01-29T16:02:13.165Z,16.17
2019-01-29T16:12:14.408Z,21.13
2019-01-29T16:22:15.673Z,17.30
2019-01-29T16:32:16.943Z,17.30
2019-01-29T16:42:18.230Z,18.40
2019-01-29T16:52:19.497Z,14.57
2019-01-29T17:02:20.780Z,12.33
2019-01-29T17:12:22.859Z,16.33
2019-01-29T17:22:24.113Z,23.17
2019-01-29T17:32:30.498Z,25.00
2019-01-29T17:42:29.939Z,26.33
2019-01-29T17:52:31.233Z,20.03
2019-01-29T18:02:32.489Z,17.20
2019-01-29T18:12:33.762Z,23.13
2019-01-29T18:22:35.064Z,30.03
2019-01-29T19:03:01.107Z,20.63
2019-01-29T19:13:02.384Z,27.60
2019-01-29T19:23:05.736Z,28.57
2019-01-29T19:33:06.985Z,29.00
2019-01-29T19:43:08.365Z,27.80
2019-01-29T19:53:09.627Z,26.47
2019-01-29T20:03:10.883Z,31.17
2019-01-29T20:13:12.135Z,26.60
2019-01-29T20:23:14.172Z,30.67
2019-01-29T20:33:15.604Z,27.90
2019-01-29T20:43:16.890Z,32.73
2019-01-29T20:53:18.156Z,29.73
2019-01-29T21:03:19.448Z,29.53
2019-01-29T21:13:20.711Z,28.80
2019-01-29T21:23:21.952Z,27.00
2019-01-29T21:33:23.212Z,31.13
2019-01-29T21:43:25.242Z,29.00
2019-01-29T21:53:26.494Z,27.27
2019-01-29T22:03:27.783Z,25.10
2019-01-29T22:13:29.054Z,22.90
2019-01-29T22:23:32.336Z,21.80
2019-01-29T22:33:33.612Z,25.07
2019-01-29T22:43:34.882Z,21.03
2019-01-29T22:53:36.201Z,21.30
2019-01-29T23:03:37.473Z,21.63
2019-01-29T23:13:38.745Z,20.73
2019-01-29T23:23:40.765Z,23.30
2019-01-29T23:33:42.032Z,18.30
2019-01-29T23:43:43.283Z,20.10
2019-01-29T23:53:44.548Z,18.07
